sensor_id;sensor_type;location;lat;lon;timestamp;temperature;humidity
26599;DHT22;14240;51.064;16.612;2023-05-20T00:00:51;12.50;99.90
26599;DHT22;14240;51.064;16.612;2023-05-20T00:03:18;12.50;99.90
26599;DHT22;14240;51.064;16.612;2023-05-20T00:05:45;12.50;99.90
26599;DHT22;14240;51.064;16.612;2023-05-20T00:08:11;12.40;99.90
26599;DHT22;14240;51.064;16.612;2023-05-20T00:10:37;12.40;99.90
26599;DHT22;14240;51.064;16.612;2023-05-20T00:13:03;12.40;99.90
26599;DHT22;14240;51.064;16.612;2023-05-20T00:15:29;12.40;99.90
26599;DHT22;14240;51.064;16.612;2023-05-20T00:17:55;12.40;99.90
26599;DHT22;14240;51.064;16.612;2023-05-20T00:20:21;12.40;99.90
26599;DHT22;14240;51.064;16.612;2023-05-20T00:22:46;12.40;99.90
26599;DHT22;14240;51.064;16.612;2023-05-20T00:25:12;12.40;99.90
26599;DHT22;14240;51.064;16.612;2023-05-20T00:27:41;12.40;99.90
26599;DHT22;14240;51.064;16.612;2023-05-20T00:30:07;12.40;99.90
26599;DHT22;14240;51.064;16.612;2023-05-20T00:32:33;12.40;99.90
26599;DHT22;14240;51.064;16.612;2023-05-20T00:34:59;12.50;99.90
26599;DHT22;14240;51.064;16.612;2023-05-20T00:37:25;12.50;99.90
26599;DHT22;14240;51.064;16.612;2023-05-20T00:39:51;12.40;99.90
26599;DHT22;14240;51.064;16.612;2023-05-20T00:42:25;12.40;99.90
26599;DHT22;14240;51.064;16.612;2023-05-20T00:44:52;12.50;99.90
26599;DHT22;14240;51.064;16.612;2023-05-20T00:47:19;12.50;99.90
26599;DHT22;14240;51.064;16.612;2023-05-20T00:49:49;12.50;99.90
26599;DHT22;14240;51.064;16.612;2023-05-20T00:52:16;12.50;99.90
26599;DHT22;14240;51.064;16.612;2023-05-20T00:54:42;12.50;99.90
26599;DHT22;14240;51.064;16.612;2023-05-20T00:57:08;12.50;99.90
26599;DHT22;14240;51.064;16.612;2023-05-20T00:59:36;12.40;99.90
26599;DHT22;14240;51.064;16.612;2023-05-20T01:02:02;12.40;99.90
26599;DHT22;14240;51.064;16.612;2023-05-20T01:04:29;12.50;99.90
26599;DHT22;14240;51.064;16.612;2023-05-20T01:06:56;12.40;99.90
26599;DHT22;14240;51.064;16.612;2023-05-20T01:09:23;12.40;99.90
26599;DHT22;14240;51.064;16.612;2023-05-20T01:12:15;12.40;99.90
26599;DHT22;14240;51.064;16.612;2023-05-20T01:14:48;12.40;99.90
26599;DHT22;14240;51.064;16.612;2023-05-20T01:17:16;12.40;99.90
26599;DHT22;14240;51.064;16.612;2023-05-20T01:19:46;12.40;99.90
26599;DHT22;14240;51.064;16.612;2023-05-20T01:22:13;12.40;99.90
26599;DHT22;14240;51.064;16.612;2023-05-20T01:24:44;12.40;99.90
26599;DHT22;14240;51.064;16.612;2023-05-20T01:27:11;12.40;99.90
26599;DHT22;14240;51.064;16.612;2023-05-20T01:29:38;12.40;99.90
26599;DHT22;14240;51.064;16.612;2023-05-20T01:32:14;12.40;99.90
26599;DHT22;14240;51.064;16.612;2023-05-20T01:34:42;12.40;99.90
26599;DHT22;14240;51.064;16.612;2023-05-20T01:37:09;12.40;99.90
26599;DHT22;14240;51.064;16.612;2023-05-20T01:39:38;12.40;99.90
26599;DHT22;14240;51.064;16.612;2023-05-20T01:42:07;12.40;99.90
26599;DHT22;14240;51.064;16.612;2023-05-20T01:44:33;12.40;99.90
26599;DHT22;14240;51.064;16.612;2023-05-20T01:46:59;12.40;99.90
26599;DHT22;14240;51.064;16.612;2023-05-20T01:49:26;12.40;99.90
26599;DHT22;14240;51.064;16.612;2023-05-20T01:51:52;12.40;99.90
26599;DHT22;14240;51.064;16.612;2023-05-20T01:54:17;12.40;99.90
26599;DHT22;14240;51.064;16.612;2023-05-20T01:56:45;12.40;99.90
26599;DHT22;14240;51.064;16.612;2023-05-20T01:59:11;12.40;99.90
26599;DHT22;14240;51.064;16.612;2023-05-20T02:01:37;12.40;99.90
26599;DHT22;14240;51.064;16.612;2023-05-20T02:04:02;12.40;99.90
26599;DHT22;14240;51.064;16.612;2023-05-20T02:06:28;12.40;99.90
26599;DHT22;14240;51.064;16.612;2023-05-20T02:08:54;12.40;99.90
26599;DHT22;14240;51.064;16.612;2023-05-20T02:11:19;12.40;99.90
26599;DHT22;14240;51.064;16.612;2023-05-20T02:13:46;12.30;99.90
26599;DHT22;14240;51.064;16.612;2023-05-20T02:16:11;12.40;99.90
26599;DHT22;14240;51.064;16.612;2023-05-20T02:18:37;12.40;99.90
26599;DHT22;14240;51.064;16.612;2023-05-20T02:21:03;12.40;99.90
26599;DHT22;14240;51.064;16.612;2023-05-20T02:23:30;12.40;99.90
26599;DHT22;14240;51.064;16.612;2023-05-20T02:25:56;12.40;99.90
26599;DHT22;14240;51.064;16.612;2023-05-20T02:28:22;12.40;99.90
26599;DHT22;14240;51.064;16.612;2023-05-20T02:30:47;12.40;99.90
26599;DHT22;14240;51.064;16.612;2023-05-20T02:33:16;12.40;99.90
26599;DHT22;14240;51.064;16.612;2023-05-20T02:35:42;12.40;99.90
26599;DHT22;14240;51.064;16.612;2023-05-20T02:38:07;12.40;99.90
26599;DHT22;14240;51.064;16.612;2023-05-20T02:40:33;12.40;99.90
26599;DHT22;14240;51.064;16.612;2023-05-20T02:42:59;12.40;99.90
26599;DHT22;14240;51.064;16.612;2023-05-20T02:45:28;12.40;99.90
26599;DHT22;14240;51.064;16.612;2023-05-20T02:47:54;12.40;99.90
26599;DHT22;14240;51.064;16.612;2023-05-20T02:50:20;12.40;99.90
26599;DHT22;14240;51.064;16.612;2023-05-20T02:52:45;12.40;99.90
26599;DHT22;14240;51.064;16.612;2023-05-20T02:55:11;12.40;99.90
26599;DHT22;14240;51.064;16.612;2023-05-20T02:57:38;12.40;99.90
26599;DHT22;14240;51.064;16.612;2023-05-20T03:00:06;12.40;99.90
26599;DHT22;14240;51.064;16.612;2023-05-20T03:02:35;12.40;99.90
26599;DHT22;14240;51.064;16.612;2023-05-20T03:05:01;12.40;99.90
26599;DHT22;14240;51.064;16.612;2023-05-20T03:07:30;12.40;99.90
26599;DHT22;14240;51.064;16.612;2023-05-20T03:09:56;12.40;99.90
26599;DHT22;14240;51.064;16.612;2023-05-20T03:12:23;12.40;99.90
26599;DHT22;14240;51.064;16.612;2023-05-20T03:14:51;12.30;99.90
26599;DHT22;14240;51.064;16.612;2023-05-20T03:17:20;12.30;99.90
26599;DHT22;14240;51.064;16.612;2023-05-20T03:19:46;12.30;99.90
26599;DHT22;14240;51.064;16.612;2023-05-20T03:22:12;12.30;99.90
26599;DHT22;14240;51.064;16.612;2023-05-20T03:24:38;12.30;99.90
26599;DHT22;14240;51.064;16.612;2023-05-20T03:27:05;12.30;99.90
26599;DHT22;14240;51.064;16.612;2023-05-20T03:29:31;12.30;99.90
26599;DHT22;14240;51.064;16.612;2023-05-20T03:31:58;12.30;99.90
26599;DHT22;14240;51.064;16.612;2023-05-20T03:34:23;12.30;99.90
26599;DHT22;14240;51.064;16.612;2023-05-20T03:36:50;12.30;99.90
26599;DHT22;14240;51.064;16.612;2023-05-20T03:39:16;12.30;99.90
26599;DHT22;14240;51.064;16.612;2023-05-20T03:41:41;12.30;99.90
26599;DHT22;14240;51.064;16.612;2023-05-20T03:44:07;12.30;99.90
26599;DHT22;14240;51.064;16.612;2023-05-20T03:46:33;12.30;99.90
26599;DHT22;14240;51.064;16.612;2023-05-20T03:48:59;12.30;99.90
26599;DHT22;14240;51.064;16.612;2023-05-20T03:51:26;12.30;99.90
26599;DHT22;14240;51.064;16.612;2023-05-20T03:53:52;12.30;99.90
26599;DHT22;14240;51.064;16.612;2023-05-20T03:56:18;12.30;99.90
26599;DHT22;14240;51.064;16.612;2023-05-20T03:58:44;12.30;99.90
26599;DHT22;14240;51.064;16.612;2023-05-20T04:01:10;12.30;99.90
26599;DHT22;14240;51.064;16.612;2023-05-20T04:03:40;12.40;99.90
26599;DHT22;14240;51.064;16.612;2023-05-20T04:06:07;12.30;99.90
26599;DHT22;14240;51.064;16.612;2023-05-20T04:08:32;13.10;99.90
26599;DHT22;14240;51.064;16.612;2023-05-20T04:11:04;12.40;99.90
26599;DHT22;14240;51.064;16.612;2023-05-20T04:13:31;12.30;99.90
26599;DHT22;14240;51.064;16.612;2023-05-20T04:15:57;12.40;99.90
26599;DHT22;14240;51.064;16.612;2023-05-20T04:18:23;12.40;99.90
26599;DHT22;14240;51.064;16.612;2023-05-20T04:20:48;12.40;99.90
26599;DHT22;14240;51.064;16.612;2023-05-20T04:23:14;12.30;99.90
26599;DHT22;14240;51.064;16.612;2023-05-20T04:25:40;12.40;99.90
26599;DHT22;14240;51.064;16.612;2023-05-20T04:28:06;12.40;99.90
26599;DHT22;14240;51.064;16.612;2023-05-20T04:30:35;12.40;99.90
26599;DHT22;14240;51.064;16.612;2023-05-20T04:33:00;12.40;99.90
26599;DHT22;14240;51.064;16.612;2023-05-20T04:35:27;12.40;99.90
26599;DHT22;14240;51.064;16.612;2023-05-20T04:37:54;12.40;99.90
26599;DHT22;14240;51.064;16.612;2023-05-20T04:40:20;12.40;99.90
26599;DHT22;14240;51.064;16.612;2023-05-20T04:42:46;12.40;99.90
26599;DHT22;14240;51.064;16.612;2023-05-20T04:45:13;12.50;99.90
26599;DHT22;14240;51.064;16.612;2023-05-20T04:47:43;12.40;99.90
26599;DHT22;14240;51.064;16.612;2023-05-20T04:50:10;12.40;99.90
26599;DHT22;14240;51.064;16.612;2023-05-20T04:52:37;12.40;99.90
26599;DHT22;14240;51.064;16.612;2023-05-20T04:55:06;12.50;99.90
26599;DHT22;14240;51.064;16.612;2023-05-20T04:57:36;12.50;99.90
26599;DHT22;14240;51.064;16.612;2023-05-20T05:00:10;12.50;99.90
26599;DHT22;14240;51.064;16.612;2023-05-20T05:02:36;12.50;99.90
26599;DHT22;14240;51.064;16.612;2023-05-20T05:05:06;12.40;99.90
26599;DHT22;14240;51.064;16.612;2023-05-20T05:07:33;12.50;99.90
26599;DHT22;14240;51.064;16.612;2023-05-20T05:09:59;12.50;99.90
26599;DHT22;14240;51.064;16.612;2023-05-20T05:12:25;12.50;99.90
26599;DHT22;14240;51.064;16.612;2023-05-20T05:14:51;12.50;99.90
26599;DHT22;14240;51.064;16.612;2023-05-20T05:17:16;12.50;99.90
26599;DHT22;14240;51.064;16.612;2023-05-20T05:19:42;12.50;99.90
26599;DHT22;14240;51.064;16.612;2023-05-20T05:22:08;12.50;99.90
26599;DHT22;14240;51.064;16.612;2023-05-20T05:24:33;12.50;99.90
26599;DHT22;14240;51.064;16.612;2023-05-20T05:26:59;12.60;99.90
26599;DHT22;14240;51.064;16.612;2023-05-20T05:29:25;12.60;99.90
26599;DHT22;14240;51.064;16.612;2023-05-20T05:31:51;12.60;99.90
26599;DHT22;14240;51.064;16.612;2023-05-20T05:34:16;12.60;99.90
26599;DHT22;14240;51.064;16.612;2023-05-20T05:36:42;12.60;99.90
26599;DHT22;14240;51.064;16.612;2023-05-20T05:39:08;12.60;99.90
26599;DHT22;14240;51.064;16.612;2023-05-20T05:41:33;12.60;99.90
26599;DHT22;14240;51.064;16.612;2023-05-20T05:43:59;12.70;99.90
26599;DHT22;14240;51.064;16.612;2023-05-20T05:46:25;12.70;99.90
26599;DHT22;14240;51.064;16.612;2023-05-20T05:48:50;12.70;99.90
26599;DHT22;14240;51.064;16.612;2023-05-20T05:51:20;12.70;99.90
26599;DHT22;14240;51.064;16.612;2023-05-20T05:53:53;12.60;99.90
26599;DHT22;14240;51.064;16.612;2023-05-20T05:56:18;12.60;99.90
26599;DHT22;14240;51.064;16.612;2023-05-20T05:58:44;12.70;99.90
26599;DHT22;14240;51.064;16.612;2023-05-20T06:01:13;12.70;99.90
26599;DHT22;14240;51.064;16.612;2023-05-20T06:03:39;12.70;99.90
26599;DHT22;14240;51.064;16.612;2023-05-20T06:06:05;12.70;99.90
26599;DHT22;14240;51.064;16.612;2023-05-20T06:08:30;12.70;99.90
26599;DHT22;14240;51.064;16.612;2023-05-20T06:10:56;12.70;99.90
26599;DHT22;14240;51.064;16.612;2023-05-20T06:13:22;12.70;99.90
26599;DHT22;14240;51.064;16.612;2023-05-20T06:15:51;12.70;99.90
26599;DHT22;14240;51.064;16.612;2023-05-20T06:18:18;12.70;99.90
26599;DHT22;14240;51.064;16.612;2023-05-20T06:20:43;12.70;99.90
26599;DHT22;14240;51.064;16.612;2023-05-20T06:23:09;12.80;99.90
26599;DHT22;14240;51.064;16.612;2023-05-20T06:25:35;12.80;99.90
26599;DHT22;14240;51.064;16.612;2023-05-20T06:28:00;12.80;99.90
26599;DHT22;14240;51.064;16.612;2023-05-20T06:30:26;12.90;99.90
26599;DHT22;14240;51.064;16.612;2023-05-20T06:32:52;12.90;99.90
26599;DHT22;14240;51.064;16.612;2023-05-20T06:35:20;13.00;99.90
26599;DHT22;14240;51.064;16.612;2023-05-20T06:37:47;13.00;99.90
26599;DHT22;14240;51.064;16.612;2023-05-20T06:40:13;13.00;99.90
26599;DHT22;14240;51.064;16.612;2023-05-20T06:42:39;13.00;99.90
26599;DHT22;14240;51.064;16.612;2023-05-20T06:45:05;13.00;99.90
26599;DHT22;14240;51.064;16.612;2023-05-20T06:47:31;13.00;99.90
26599;DHT22;14240;51.064;16.612;2023-05-20T06:49:56;13.00;99.90
26599;DHT22;14240;51.064;16.612;2023-05-20T06:52:22;13.00;99.90
26599;DHT22;14240;51.064;16.612;2023-05-20T06:54:48;13.00;99.90
26599;DHT22;14240;51.064;16.612;2023-05-20T06:57:13;13.10;99.90
26599;DHT22;14240;51.064;16.612;2023-05-20T06:59:39;13.10;99.90
26599;DHT22;14240;51.064;16.612;2023-05-20T07:02:06;13.10;99.90
26599;DHT22;14240;51.064;16.612;2023-05-20T07:04:32;13.10;99.90
26599;DHT22;14240;51.064;16.612;2023-05-20T07:06:58;13.10;99.90
26599;DHT22;14240;51.064;16.612;2023-05-20T07:09:23;13.20;99.90
26599;DHT22;14240;51.064;16.612;2023-05-20T07:11:49;13.20;99.90
26599;DHT22;14240;51.064;16.612;2023-05-20T07:14:15;13.20;99.90
26599;DHT22;14240;51.064;16.612;2023-05-20T07:16:40;13.10;99.90
26599;DHT22;14240;51.064;16.612;2023-05-20T07:19:06;13.20;99.90
26599;DHT22;14240;51.064;16.612;2023-05-20T07:21:32;13.20;99.90
26599;DHT22;14240;51.064;16.612;2023-05-20T07:23:57;13.20;99.90
26599;DHT22;14240;51.064;16.612;2023-05-20T07:26:23;13.30;99.90
26599;DHT22;14240;51.064;16.612;2023-05-20T07:28:49;13.30;99.90
26599;DHT22;14240;51.064;16.612;2023-05-20T07:31:14;13.30;99.90
26599;DHT22;14240;51.064;16.612;2023-05-20T07:33:41;13.20;99.90
26599;DHT22;14240;51.064;16.612;2023-05-20T07:36:07;13.40;99.90
26599;DHT22;14240;51.064;16.612;2023-05-20T07:38:32;13.40;99.90
26599;DHT22;14240;51.064;16.612;2023-05-20T07:40:58;13.50;99.90
26599;DHT22;14240;51.064;16.612;2023-05-20T07:43:24;13.40;99.90
26599;DHT22;14240;51.064;16.612;2023-05-20T07:45:49;13.50;99.90
26599;DHT22;14240;51.064;16.612;2023-05-20T07:48:15;13.60;99.90
26599;DHT22;14240;51.064;16.612;2023-05-20T07:50:41;13.60;99.90
26599;DHT22;14240;51.064;16.612;2023-05-20T07:53:06;13.70;99.90
26599;DHT22;14240;51.064;16.612;2023-05-20T07:55:33;13.70;99.90
26599;DHT22;14240;51.064;16.612;2023-05-20T07:57:59;13.80;99.90
26599;DHT22;14240;51.064;16.612;2023-05-20T08:00:25;13.80;99.90
26599;DHT22;14240;51.064;16.612;2023-05-20T08:02:50;13.80;99.90
26599;DHT22;14240;51.064;16.612;2023-05-20T08:05:16;13.90;99.90
26599;DHT22;14240;51.064;16.612;2023-05-20T08:07:42;13.90;99.90
26599;DHT22;14240;51.064;16.612;2023-05-20T08:10:08;14.00;99.90
26599;DHT22;14240;51.064;16.612;2023-05-20T08:12:34;14.00;99.90
26599;DHT22;14240;51.064;16.612;2023-05-20T08:15:00;14.00;99.90
26599;DHT22;14240;51.064;16.612;2023-05-20T08:17:25;14.10;99.90
26599;DHT22;14240;51.064;16.612;2023-05-20T08:19:57;14.10;99.90
26599;DHT22;14240;51.064;16.612;2023-05-20T08:22:39;14.10;99.90
26599;DHT22;14240;51.064;16.612;2023-05-20T08:25:21;14.20;99.90
26599;DHT22;14240;51.064;16.612;2023-05-20T08:27:55;14.20;99.90
26599;DHT22;14240;51.064;16.612;2023-05-20T08:30:27;14.30;99.90
26599;DHT22;14240;51.064;16.612;2023-05-20T08:32:57;14.30;99.90
26599;DHT22;14240;51.064;16.612;2023-05-20T08:35:23;14.40;99.90
26599;DHT22;14240;51.064;16.612;2023-05-20T08:37:48;14.50;99.90
26599;DHT22;14240;51.064;16.612;2023-05-20T08:40:15;14.60;99.90
26599;DHT22;14240;51.064;16.612;2023-05-20T08:42:42;14.60;99.90
26599;DHT22;14240;51.064;16.612;2023-05-20T08:45:10;14.70;99.90
26599;DHT22;14240;51.064;16.612;2023-05-20T08:47:40;14.70;99.90
26599;DHT22;14240;51.064;16.612;2023-05-20T08:50:08;14.80;99.90
26599;DHT22;14240;51.064;16.612;2023-05-20T08:52:37;14.80;99.90
26599;DHT22;14240;51.064;16.612;2023-05-20T08:55:06;14.80;99.90
26599;DHT22;14240;51.064;16.612;2023-05-20T08:57:34;14.80;99.90
26599;DHT22;14240;51.064;16.612;2023-05-20T09:00:01;14.90;99.90
26599;DHT22;14240;51.064;16.612;2023-05-20T09:02:36;14.90;99.90
26599;DHT22;14240;51.064;16.612;2023-05-20T09:05:03;15.00;99.90
26599;DHT22;14240;51.064;16.612;2023-05-20T09:07:29;15.00;99.90
26599;DHT22;14240;51.064;16.612;2023-05-20T09:09:56;15.10;99.90
26599;DHT22;14240;51.064;16.612;2023-05-20T09:12:22;15.10;99.90
26599;DHT22;14240;51.064;16.612;2023-05-20T09:14:48;15.10;99.90
26599;DHT22;14240;51.064;16.612;2023-05-20T09:17:13;15.10;99.90
26599;DHT22;14240;51.064;16.612;2023-05-20T09:19:39;15.10;99.90
26599;DHT22;14240;51.064;16.612;2023-05-20T09:22:06;15.10;99.90
26599;DHT22;14240;51.064;16.612;2023-05-20T09:24:32;15.20;99.90
26599;DHT22;14240;51.064;16.612;2023-05-20T09:26:57;15.20;99.90
26599;DHT22;14240;51.064;16.612;2023-05-20T09:29:25;15.20;99.90
26599;DHT22;14240;51.064;16.612;2023-05-20T09:31:51;15.30;99.90
26599;DHT22;14240;51.064;16.612;2023-05-20T09:34:18;15.40;99.90
26599;DHT22;14240;51.064;16.612;2023-05-20T09:36:48;15.40;99.90
26599;DHT22;14240;51.064;16.612;2023-05-20T09:39:23;15.40;99.90
26599;DHT22;14240;51.064;16.612;2023-05-20T09:42:14;15.50;99.90
26599;DHT22;14240;51.064;16.612;2023-05-20T09:44:42;15.50;99.90
26599;DHT22;14240;51.064;16.612;2023-05-20T09:47:10;15.50;99.90
26599;DHT22;14240;51.064;16.612;2023-05-20T09:49:36;15.60;99.90
26599;DHT22;14240;51.064;16.612;2023-05-20T09:52:03;15.60;99.90
26599;DHT22;14240;51.064;16.612;2023-05-20T09:54:30;15.70;99.90
26599;DHT22;14240;51.064;16.612;2023-05-20T09:56:58;15.80;99.90
26599;DHT22;14240;51.064;16.612;2023-05-20T09:59:26;15.90;99.90
26599;DHT22;14240;51.064;16.612;2023-05-20T10:01:52;16.00;99.90
26599;DHT22;14240;51.064;16.612;2023-05-20T10:04:18;16.00;99.90
26599;DHT22;14240;51.064;16.612;2023-05-20T10:17:43;16.20;99.90
26599;DHT22;14240;51.064;16.612;2023-05-20T10:20:11;16.20;99.90
26599;DHT22;14240;51.064;16.612;2023-05-20T10:22:37;16.30;99.90
26599;DHT22;14240;51.064;16.612;2023-05-20T10:25:05;16.30;99.90
26599;DHT22;14240;51.064;16.612;2023-05-20T10:28:02;16.30;99.90
26599;DHT22;14240;51.064;16.612;2023-05-20T10:30:28;16.30;99.90
26599;DHT22;14240;51.064;16.612;2023-05-20T10:33:01;16.30;99.90
26599;DHT22;14240;51.064;16.612;2023-05-20T10:35:27;16.30;99.90
26599;DHT22;14240;51.064;16.612;2023-05-20T10:37:54;16.30;99.90
26599;DHT22;14240;51.064;16.612;2023-05-20T10:40:30;16.30;99.90
26599;DHT22;14240;51.064;16.612;2023-05-20T10:42:56;16.40;99.90
26599;DHT22;14240;51.064;16.612;2023-05-20T10:45:32;16.50;99.90
26599;DHT22;14240;51.064;16.612;2023-05-20T10:48:01;16.70;99.90
26599;DHT22;14240;51.064;16.612;2023-05-20T10:50:35;16.90;99.90
26599;DHT22;14240;51.064;16.612;2023-05-20T10:53:05;17.00;99.90
26599;DHT22;14240;51.064;16.612;2023-05-20T10:55:38;17.10;99.90
26599;DHT22;14240;51.064;16.612;2023-05-20T10:58:05;17.20;99.90
26599;DHT22;14240;51.064;16.612;2023-05-20T11:00:35;17.30;99.90
26599;DHT22;14240;51.064;16.612;2023-05-20T11:03:02;17.40;99.90
26599;DHT22;14240;51.064;16.612;2023-05-20T11:05:29;17.50;99.90
26599;DHT22;14240;51.064;16.612;2023-05-20T11:08:03;17.60;99.90
26599;DHT22;14240;51.064;16.612;2023-05-20T11:10:29;17.70;99.90
26599;DHT22;14240;51.064;16.612;2023-05-20T11:12:56;17.90;99.90
26599;DHT22;14240;51.064;16.612;2023-05-20T11:15:22;17.90;99.90
26599;DHT22;14240;51.064;16.612;2023-05-20T11:17:56;18.00;99.90
26599;DHT22;14240;51.064;16.612;2023-05-20T11:20:23;18.00;99.90
26599;DHT22;14240;51.064;16.612;2023-05-20T11:22:50;18.10;99.90
26599;DHT22;14240;51.064;16.612;2023-05-20T11:25:17;18.00;99.90
26599;DHT22;14240;51.064;16.612;2023-05-20T11:27:43;18.10;99.90
26599;DHT22;14240;51.064;16.612;2023-05-20T11:30:13;18.20;99.90
26599;DHT22;14240;51.064;16.612;2023-05-20T11:32:42;18.20;99.90
26599;DHT22;14240;51.064;16.612;2023-05-20T11:35:22;18.30;99.90
26599;DHT22;14240;51.064;16.612;2023-05-20T11:40:24;18.50;99.90
26599;DHT22;14240;51.064;16.612;2023-05-20T11:42:58;18.60;99.90
26599;DHT22;14240;51.064;16.612;2023-05-20T11:45:24;18.50;99.90
26599;DHT22;14240;51.064;16.612;2023-05-20T11:47:59;18.40;99.90
26599;DHT22;14240;51.064;16.612;2023-05-20T11:50:25;18.40;99.90
26599;DHT22;14240;51.064;16.612;2023-05-20T11:52:57;18.40;99.90
26599;DHT22;14240;51.064;16.612;2023-05-20T11:55:24;18.50;99.90
26599;DHT22;14240;51.064;16.612;2023-05-20T11:57:50;18.60;99.90
26599;DHT22;14240;51.064;16.612;2023-05-20T12:00:17;18.60;99.90
26599;DHT22;14240;51.064;16.612;2023-05-20T12:02:43;18.60;99.90
26599;DHT22;14240;51.064;16.612;2023-05-20T12:05:09;18.70;99.90
26599;DHT22;14240;51.064;16.612;2023-05-20T12:07:35;18.80;99.90
26599;DHT22;14240;51.064;16.612;2023-05-20T12:10:04;18.80;99.90
26599;DHT22;14240;51.064;16.612;2023-05-20T12:12:31;18.80;99.90
26599;DHT22;14240;51.064;16.612;2023-05-20T12:14:57;18.90;99.90
26599;DHT22;14240;51.064;16.612;2023-05-20T12:17:22;18.90;99.90
26599;DHT22;14240;51.064;16.612;2023-05-20T12:19:48;18.90;99.90
26599;DHT22;14240;51.064;16.612;2023-05-20T12:22:14;18.90;99.90
26599;DHT22;14240;51.064;16.612;2023-05-20T12:24:39;18.90;99.90
26599;DHT22;14240;51.064;16.612;2023-05-20T12:27:05;19.00;99.90
26599;DHT22;14240;51.064;16.612;2023-05-20T12:29:32;19.00;99.90
26599;DHT22;14240;51.064;16.612;2023-05-20T12:31:59;19.10;99.90
26599;DHT22;14240;51.064;16.612;2023-05-20T12:34:25;19.00;99.90
26599;DHT22;14240;51.064;16.612;2023-05-20T12:36:51;19.00;99.90
26599;DHT22;14240;51.064;16.612;2023-05-20T12:39:17;19.00;99.90
26599;DHT22;14240;51.064;16.612;2023-05-20T12:41:43;18.90;99.90
26599;DHT22;14240;51.064;16.612;2023-05-20T12:44:09;18.90;99.90
26599;DHT22;14240;51.064;16.612;2023-05-20T12:46:36;18.90;99.90
26599;DHT22;14240;51.064;16.612;2023-05-20T12:49:02;19.00;99.90
26599;DHT22;14240;51.064;16.612;2023-05-20T12:51:28;19.00;99.90
26599;DHT22;14240;51.064;16.612;2023-05-20T12:53:54;19.00;99.90
26599;DHT22;14240;51.064;16.612;2023-05-20T12:56:20;19.00;99.90
26599;DHT22;14240;51.064;16.612;2023-05-20T12:58:47;19.00;99.90
26599;DHT22;14240;51.064;16.612;2023-05-20T13:01:12;19.00;99.90
26599;DHT22;14240;51.064;16.612;2023-05-20T13:03:38;19.00;99.90
26599;DHT22;14240;51.064;16.612;2023-05-20T13:06:04;19.00;99.90
26599;DHT22;14240;51.064;16.612;2023-05-20T13:08:30;19.00;99.90
26599;DHT22;14240;51.064;16.612;2023-05-20T13:10:56;18.90;99.90
26599;DHT22;14240;51.064;16.612;2023-05-20T13:13:22;18.90;99.90
26599;DHT22;14240;51.064;16.612;2023-05-20T13:15:48;18.90;99.90
26599;DHT22;14240;51.064;16.612;2023-05-20T13:18:14;18.80;99.90
26599;DHT22;14240;51.064;16.612;2023-05-20T13:20:41;18.90;99.90
26599;DHT22;14240;51.064;16.612;2023-05-20T13:23:07;18.90;99.90
26599;DHT22;14240;51.064;16.612;2023-05-20T13:25:33;18.90;99.90
26599;DHT22;14240;51.064;16.612;2023-05-20T13:28:00;19.00;99.90
26599;DHT22;14240;51.064;16.612;2023-05-20T13:30:25;19.00;99.90
26599;DHT22;14240;51.064;16.612;2023-05-20T13:32:52;19.00;99.90
26599;DHT22;14240;51.064;16.612;2023-05-20T13:35:18;18.90;99.90
26599;DHT22;14240;51.064;16.612;2023-05-20T13:37:44;18.90;99.90
26599;DHT22;14240;51.064;16.612;2023-05-20T13:40:10;18.90;99.90
26599;DHT22;14240;51.064;16.612;2023-05-20T13:42:36;18.80;99.90
26599;DHT22;14240;51.064;16.612;2023-05-20T13:45:02;18.90;99.90
26599;DHT22;14240;51.064;16.612;2023-05-20T13:47:28;18.90;99.90
26599;DHT22;14240;51.064;16.612;2023-05-20T13:49:54;19.00;99.90
26599;DHT22;14240;51.064;16.612;2023-05-20T13:52:19;19.00;99.90
26599;DHT22;14240;51.064;16.612;2023-05-20T13:54:45;19.00;99.90
26599;DHT22;14240;51.064;16.612;2023-05-20T13:57:16;19.00;99.90
26599;DHT22;14240;51.064;16.612;2023-05-20T13:59:41;19.00;99.90
26599;DHT22;14240;51.064;16.612;2023-05-20T14:02:07;19.00;99.90
26599;DHT22;14240;51.064;16.612;2023-05-20T14:04:33;18.90;99.90
26599;DHT22;14240;51.064;16.612;2023-05-20T14:07:04;18.90;99.90
26599;DHT22;14240;51.064;16.612;2023-05-20T14:09:31;18.80;99.90
26599;DHT22;14240;51.064;16.612;2023-05-20T14:11:56;18.80;99.90
26599;DHT22;14240;51.064;16.612;2023-05-20T14:14:22;18.70;99.90
26599;DHT22;14240;51.064;16.612;2023-05-20T14:16:48;18.80;99.90
26599;DHT22;14240;51.064;16.612;2023-05-20T14:19:13;18.90;99.90
26599;DHT22;14240;51.064;16.612;2023-05-20T14:21:39;18.80;99.90
26599;DHT22;14240;51.064;16.612;2023-05-20T14:24:05;18.90;99.90
26599;DHT22;14240;51.064;16.612;2023-05-20T14:26:32;18.90;99.90
26599;DHT22;14240;51.064;16.612;2023-05-20T14:28:58;18.90;99.90
26599;DHT22;14240;51.064;16.612;2023-05-20T14:31:25;18.90;99.90
26599;DHT22;14240;51.064;16.612;2023-05-20T14:33:51;18.70;99.90
26599;DHT22;14240;51.064;16.612;2023-05-20T14:36:17;19.00;99.90
26599;DHT22;14240;51.064;16.612;2023-05-20T14:38:42;19.00;99.90
26599;DHT22;14240;51.064;16.612;2023-05-20T14:41:08;19.00;99.90
26599;DHT22;14240;51.064;16.612;2023-05-20T14:43:34;18.90;99.90
26599;DHT22;14240;51.064;16.612;2023-05-20T14:46:02;18.90;99.90
26599;DHT22;14240;51.064;16.612;2023-05-20T14:48:27;18.90;99.90
26599;DHT22;14240;51.064;16.612;2023-05-20T14:50:53;18.90;99.90
26599;DHT22;14240;51.064;16.612;2023-05-20T14:53:19;19.00;99.90
26599;DHT22;14240;51.064;16.612;2023-05-20T14:55:45;19.00;99.90
26599;DHT22;14240;51.064;16.612;2023-05-20T14:58:10;19.10;99.90
26599;DHT22;14240;51.064;16.612;2023-05-20T15:00:37;19.10;99.90
26599;DHT22;14240;51.064;16.612;2023-05-20T15:03:03;19.10;99.90
26599;DHT22;14240;51.064;16.612;2023-05-20T15:05:29;19.10;99.90
26599;DHT22;14240;51.064;16.612;2023-05-20T15:07:55;19.10;99.90
26599;DHT22;14240;51.064;16.612;2023-05-20T15:10:21;19.10;99.90
26599;DHT22;14240;51.064;16.612;2023-05-20T15:12:47;19.00;99.90
26599;DHT22;14240;51.064;16.612;2023-05-20T15:15:13;19.00;99.90
26599;DHT22;14240;51.064;16.612;2023-05-20T15:17:38;19.10;99.90
26599;DHT22;14240;51.064;16.612;2023-05-20T15:20:05;19.10;99.90
26599;DHT22;14240;51.064;16.612;2023-05-20T15:22:30;19.20;99.90
26599;DHT22;14240;51.064;16.612;2023-05-20T15:24:59;19.20;99.90
26599;DHT22;14240;51.064;16.612;2023-05-20T15:27:24;19.20;99.90